Time;durP1;ratioP1;P1;durP2;ratioP2;P2;SDS_P1;SDS_P2;PMS_P1;PMS_P2;Temp;Humidity;BMP_temperature;BMP_pressure;BME280_temperature;BME280_humidity;BME280_pressure;Samples;Min_cycle;Max_cycle;Signal;HPM_P1;HPM_P2
2022/07/12 00:01:43;;;;;;;3.85;2.38;;;18.70;97.60;;;;;;5053077;28;20017;-54
2022/07/12 00:04:09;;;;;;;4.47;2.80;;;18.60;97.20;;;;;;5053057;28;20531;-58
2022/07/12 00:06:35;;;;;;;3.30;2.40;;;18.50;97.00;;;;;;5052968;28;20044;-50
2022/07/12 00:09:01;;;;;;;3.50;2.70;;;18.50;97.40;;;;;;5053325;28;20111;-55
2022/07/12 00:11:27;;;;;;;4.60;2.55;;;18.40;97.70;;;;;;5052970;28;20100;-61
2022/07/12 00:13:52;;;;;;;3.10;1.90;;;18.50;97.80;;;;;;5053035;28;20021;-52
2022/07/12 00:16:18;;;;;;;3.38;2.00;;;18.50;97.30;;;;;;5053052;28;20036;-43
2022/07/12 00:18:44;;;;;;;3.58;2.05;;;18.50;97.60;;;;;;5052770;28;20441;-46
2022/07/12 00:21:09;;;;;;;3.72;2.22;;;18.50;97.80;;;;;;5052915;28;20372;-55
2022/07/12 00:23:35;;;;;;;2.88;1.90;;;18.50;97.60;;;;;;5052837;28;20027;-53
2022/07/12 00:26:04;;;;;;;2.97;2.00;;;18.50;97.50;;;;;;5052679;28;20025;-54
2022/07/12 00:28:30;;;;;;;4.23;2.03;;;18.50;97.90;;;;;;5052717;28;20071;-50
2022/07/12 00:30:57;;;;;;;2.70;1.90;;;18.50;97.60;;;;;;5052470;28;20043;-45
2022/07/12 00:33:23;;;;;;;2.67;1.83;;;18.50;97.20;;;;;;5052479;28;20047;-52
2022/07/12 00:35:49;;;;;;;4.20;2.00;;;18.50;97.40;;;;;;5052683;28;20029;-51
2022/07/12 00:38:15;;;;;;;5.22;2.05;;;18.50;97.20;;;;;;5052545;28;20033;-58
2022/07/12 00:40:40;;;;;;;3.70;2.10;;;18.50;97.40;;;;;;5052329;28;20025;-51
2022/07/12 00:43:07;;;;;;;3.67;2.10;;;18.40;97.50;;;;;;5052376;28;20040;-55
2022/07/12 00:45:33;;;;;;;3.00;2.00;;;18.40;97.20;;;;;;5051183;28;20397;-58
2022/07/12 00:47:59;;;;;;;3.20;2.05;;;18.40;97.30;;;;;;5052117;28;20506;-51
2022/07/12 00:50:25;;;;;;;3.50;2.08;;;18.40;97.70;;;;;;5052574;28;20103;-54
2022/07/12 00:52:54;;;;;;;3.35;2.20;;;18.40;97.20;;;;;;5052184;28;20444;-45
2022/07/12 00:55:21;;;;;;;3.75;2.10;;;18.30;97.80;;;;;;5052275;28;20021;-59
2022/07/12 00:57:48;;;;;;;3.28;1.98;;;18.30;98.10;;;;;;5051722;28;20029;-56
2022/07/12 01:00:33;;;;;;;2.90;1.95;;;18.30;98.30;;;;;;5051933;28;20104;-59
2022/07/12 01:03:01;;;;;;;4.55;2.05;;;18.30;97.50;;;;;;5051851;28;20060;-51
2022/07/12 01:05:28;;;;;;;3.20;2.47;;;18.30;97.40;;;;;;5051982;28;20045;-59
2022/07/12 01:07:55;;;;;;;2.90;1.88;;;18.20;97.60;;;;;;5051908;28;20132;-55
2022/07/12 01:10:21;;;;;;;2.92;1.88;;;18.20;97.80;;;;;;5051808;28;20021;-52
2022/07/12 01:12:47;;;;;;;3.65;1.98;;;18.20;97.50;;;;;;5052071;28;20103;-58
2022/07/12 01:15:13;;;;;;;4.35;2.25;;;18.20;97.30;;;;;;5051653;28;20105;-56
2022/07/12 01:17:39;;;;;;;2.83;1.73;;;18.30;97.00;;;;;;5051947;28;20040;-55
2022/07/12 01:20:06;;;;;;;4.22;2.13;;;18.20;97.50;;;;;;5051687;28;20380;-58
2022/07/12 01:22:35;;;;;;;3.05;2.10;;;18.20;98.00;;;;;;5051418;28;20484;-52
2022/07/12 01:25:02;;;;;;;4.22;1.85;;;18.20;98.00;;;;;;5051812;28;20029;-59
2022/07/12 01:27:29;;;;;;;3.22;2.15;;;18.20;97.90;;;;;;5051384;28;20091;-57
2022/07/12 01:29:55;;;;;;;3.42;1.75;;;18.20;98.00;;;;;;5051403;28;20059;-58
2022/07/12 01:32:28;;;;;;;2.70;2.00;;;18.20;97.50;;;;;;5051563;28;20079;-44
2022/07/12 01:34:55;;;;;;;3.22;1.80;;;18.20;97.60;;;;;;5051557;28;20013;-57
2022/07/12 01:37:22;;;;;;;3.10;2.08;;;18.20;97.30;;;;;;5051398;28;20028;-53
2022/07/12 01:39:50;;;;;;;3.10;1.95;;;18.10;97.50;;;;;;5051671;28;20025;-56
2022/07/12 01:42:16;;;;;;;4.90;2.50;;;18.10;97.70;;;;;;5051603;28;20044;-56
2022/07/12 01:44:42;;;;;;;2.95;1.90;;;18.10;97.50;;;;;;5051180;28;20483;-57
2022/07/12 01:47:08;;;;;;;3.40;2.13;;;18.10;97.70;;;;;;5051465;28;20126;-60
2022/07/12 01:49:33;;;;;;;4.07;1.98;;;18.00;97.80;;;;;;5051136;28;20040;-54
2022/07/12 01:51:59;;;;;;;3.20;1.98;;;18.00;97.70;;;;;;5051314;28;20051;-55
2022/07/12 01:54:25;;;;;;;3.58;2.08;;;17.90;97.80;;;;;;5050767;28;20380;-43
2022/07/12 01:56:55;;;;;;;3.20;2.00;;;17.90;98.10;;;;;;5050659;28;20037;-57
2022/07/12 01:59:21;;;;;;;3.15;2.15;;;17.80;98.30;;;;;;5050697;28;20035;-55
2022/07/12 02:01:48;;;;;;;2.90;2.13;;;17.80;98.50;;;;;;5050975;28;20036;-53
2022/07/12 02:04:18;;;;;;;4.18;2.10;;;17.70;98.60;;;;;;5050968;28;20053;-49
2022/07/12 02:06:47;;;;;;;3.33;2.20;;;17.70;98.40;;;;;;5050852;28;20053;-55
2022/07/12 02:09:13;;;;;;;3.10;2.20;;;17.70;98.50;;;;;;5051019;28;20086;-52
2022/07/12 02:11:40;;;;;;;3.88;2.20;;;17.60;98.90;;;;;;5050940;28;20017;-51
2022/07/12 02:14:06;;;;;;;3.15;1.98;;;17.60;98.60;;;;;;5050939;28;20056;-57
2022/07/12 02:16:32;;;;;;;3.42;1.90;;;17.50;98.50;;;;;;5050829;28;20025;-56
2022/07/12 02:18:58;;;;;;;3.63;2.15;;;17.50;99.00;;;;;;5050939;28;20040;-53
2022/07/12 02:21:24;;;;;;;2.97;2.25;;;17.50;99.30;;;;;;5050885;28;20467;-53
2022/07/12 02:23:50;;;;;;;4.72;2.30;;;17.50;98.90;;;;;;5050846;28;20033;-52
2022/07/12 02:26:16;;;;;;;4.55;2.15;;;17.40;98.60;;;;;;5051096;28;20032;-52
2022/07/12 02:28:42;;;;;;;3.50;2.22;;;17.50;98.40;;;;;;5050624;28;20037;-55
2022/07/12 02:31:08;;;;;;;3.28;2.00;;;17.50;99.10;;;;;;5050108;28;20036;-54
2022/07/12 02:33:34;;;;;;;3.65;1.95;;;17.50;99.10;;;;;;5049335;28;20017;-44
2022/07/12 02:36:00;;;;;;;3.25;1.98;;;17.50;99.10;;;;;;5050778;28;20353;-54
2022/07/12 02:38:25;;;;;;;3.97;2.30;;;17.50;99.00;;;;;;5050387;28;20101;-50
2022/07/12 02:40:54;;;;;;;4.53;2.10;;;17.50;99.10;;;;;;5050823;28;20491;-59
2022/07/12 02:43:27;;;;;;;4.93;2.33;;;17.50;99.10;;;;;;5066382;28;20025;-60
2022/07/12 02:45:56;;;;;;;4.80;2.22;;;17.40;98.90;;;;;;5050742;28;20775;-57
2022/07/12 02:48:22;;;;;;;4.60;2.28;;;17.40;99.10;;;;;;5050505;28;20071;-53
2022/07/12 02:50:48;;;;;;;2.65;1.90;;;17.40;99.20;;;;;;5050495;28;20029;-55
2022/07/12 02:53:15;;;;;;;3.40;2.00;;;17.50;99.50;;;;;;5050585;28;20033;-56
2022/07/12 02:55:41;;;;;;;3.63;1.92;;;17.50;99.70;;;;;;5050331;28;20112;-40
2022/07/12 02:58:07;;;;;;;3.42;2.35;;;17.50;99.50;;;;;;5050578;28;20053;-49
2022/07/12 03:00:33;;;;;;;3.70;2.22;;;17.50;99.90;;;;;;5050185;28;20033;-44
2022/07/12 03:02:59;;;;;;;3.45;2.10;;;17.50;99.90;;;;;;5050521;28;20120;-52
2022/07/12 03:05:24;;;;;;;3.45;2.00;;;17.50;99.90;;;;;;5049932;28;20464;-48
2022/07/12 03:07:50;;;;;;;4.72;2.17;;;17.50;99.50;;;;;;5053544;28;20380;-53
2022/07/12 03:10:16;;;;;;;4.50;2.17;;;17.50;99.10;;;;;;5054204;28;20075;-43
2022/07/12 03:12:42;;;;;;;3.80;2.10;;;17.50;99.00;;;;;;5054279;28;20393;-55
2022/07/12 03:15:08;;;;;;;4.30;1.90;;;17.50;99.50;;;;;;5053863;28;20024;-55
2022/07/12 03:17:34;;;;;;;3.35;2.00;;;17.40;98.90;;;;;;5053977;28;20063;-57
2022/07/12 03:20:00;;;;;;;3.40;2.42;;;17.40;99.20;;;;;;5053526;28;20025;-51
2022/07/12 03:22:26;;;;;;;4.22;2.22;;;17.30;99.30;;;;;;5053788;28;20384;-55
2022/07/12 03:24:51;;;;;;;3.00;2.05;;;17.20;99.80;;;;;;5053519;28;20028;-56
2022/07/12 03:27:18;;;;;;;3.55;2.10;;;17.20;99.90;;;;;;5054006;28;20040;-52
2022/07/12 03:29:44;;;;;;;4.35;2.38;;;17.20;99.90;;;;;;5053635;28;20029;-51
2022/07/12 03:32:09;;;;;;;3.08;2.00;;;17.20;99.80;;;;;;5053938;28;20036;-57
2022/07/12 03:34:36;;;;;;;3.58;2.13;;;17.20;99.90;;;;;;5053325;28;20504;-52
2022/07/12 03:37:03;;;;;;;4.45;2.53;;;17.20;99.90;;;;;;5053413;28;20021;-50
2022/07/12 03:39:28;;;;;;;3.47;2.05;;;17.10;99.90;;;;;;5053258;28;20025;-50
2022/07/12 03:41:54;;;;;;;3.92;2.20;;;17.10;99.90;;;;;;5053427;28;20025;-44
2022/07/12 03:44:20;;;;;;;4.03;2.20;;;17.10;99.90;;;;;;5053764;28;20052;-61
2022/07/12 03:46:47;;;;;;;4.70;2.20;;;17.00;99.90;;;;;;5053033;28;20111;-44
2022/07/12 03:49:13;;;;;;;3.65;2.10;;;17.00;99.90;;;;;;5053492;28;20029;-53
2022/07/12 03:51:39;;;;;;;4.47;2.53;;;16.90;99.90;;;;;;5053163;28;20014;-59
2022/07/12 03:54:07;;;;;;;3.35;2.38;;;16.90;99.90;;;;;;5053485;28;20361;-50
2022/07/12 03:59:18;;;;;;;3.28;2.20;;;16.90;99.90;;;;;;5053592;28;20056;-49
2022/07/12 04:01:44;;;;;;;4.75;2.65;;;16.90;99.90;;;;;;5052570;28;20419;-58
2022/07/12 04:04:09;;;;;;;4.20;2.47;;;16.90;99.90;;;;;;5053192;28;20055;-44
2022/07/12 04:06:35;;;;;;;4.72;2.38;;;16.90;99.90;;;;;;5053020;28;20795;-59
2022/07/12 04:09:01;;;;;;;5.18;2.50;;;17.00;99.90;;;;;;5053029;28;20111;-56
2022/07/12 04:11:26;;;;;;;2.65;1.95;;;17.00;99.90;;;;;;5052935;28;20029;-56
2022/07/12 04:13:52;;;;;;;3.63;2.20;;;17.00;99.90;;;;;;5053057;28;20090;-58
2022/07/12 04:16:18;;;;;;;3.83;2.20;;;17.00;99.90;;;;;;5052760;28;20065;-47
2022/07/12 04:18:43;;;;;;;3.55;2.35;;;17.00;99.90;;;;;;5052297;28;20476;-54
2022/07/12 04:21:09;;;;;;;5.15;2.83;;;17.00;99.90;;;;;;5052731;28;20023;-58
2022/07/12 04:23:35;;;;;;;4.32;2.70;;;17.00;99.90;;;;;;5053041;28;20048;-43
2022/07/12 04:26:00;;;;;;;3.47;2.40;;;17.00;99.90;;;;;;5047735;28;20033;-39
2022/07/12 04:28:26;;;;;;;6.13;2.78;;;17.10;99.90;;;;;;5043552;28;20450;-56
2022/07/12 04:30:52;;;;;;;3.67;2.67;;;17.10;99.90;;;;;;5067548;28;20028;-60
2022/07/12 04:33:17;;;;;;;3.58;2.20;;;17.20;99.90;;;;;;5052516;28;20361;-53
2022/07/12 04:35:43;;;;;;;2.88;2.25;;;17.20;99.90;;;;;;5052328;28;20029;-56
2022/07/12 04:38:09;;;;;;;3.80;2.17;;;17.30;99.90;;;;;;5052569;28;20028;-58
2022/07/12 04:40:34;;;;;;;4.35;2.90;;;17.30;99.90;;;;;;5052245;28;20104;-58
2022/07/12 04:43:00;;;;;;;5.90;2.70;;;17.40;99.90;;;;;;5052437;28;20502;-55
2022/07/12 04:45:25;;;;;;;4.88;2.67;;;17.50;99.90;;;;;;5051944;28;20032;-54
2022/07/12 04:47:52;;;;;;;3.65;2.63;;;17.60;99.90;;;;;;5052069;28;20037;-48
2022/07/12 04:50:17;;;;;;;3.35;2.53;;;17.70;99.90;;;;;;5051783;28;20025;-51
2022/07/12 04:52:43;;;;;;;4.65;2.58;;;17.80;99.90;;;;;;5052138;28;20021;-51
2022/07/12 04:55:09;;;;;;;3.95;2.75;;;17.90;99.90;;;;;;5051728;28;20430;-55
2022/07/12 04:57:35;;;;;;;5.57;2.50;;;18.00;99.90;;;;;;5052000;28;20035;-52
2022/07/12 05:00:02;;;;;;;5.47;2.40;;;18.10;99.90;;;;;;5051770;28;20029;-53
2022/07/12 05:02:28;;;;;;;5.22;2.28;;;18.20;99.90;;;;;;5052264;28;20111;-51
2022/07/12 05:04:54;;;;;;;4.60;2.80;;;18.30;99.90;;;;;;5051526;28;20128;-46
2022/07/12 05:07:19;;;;;;;5.05;2.60;;;18.30;99.90;;;;;;5051966;28;20040;-54
2022/07/12 05:09:45;;;;;;;4.00;3.00;;;18.40;99.90;;;;;;5051602;28;20071;-45
2022/07/12 05:12:11;;;;;;;4.95;2.50;;;18.40;99.90;;;;;;5051842;28;20021;-58
2022/07/12 05:14:36;;;;;;;3.72;2.35;;;18.50;99.40;;;;;;5051611;28;20017;-51
2022/07/12 05:17:02;;;;;;;3.75;2.25;;;18.50;99.70;;;;;;5051533;28;20028;-54
2022/07/12 05:19:28;;;;;;;4.97;2.80;;;18.50;99.00;;;;;;5051832;28;20029;-40
2022/07/12 05:21:53;;;;;;;3.92;2.17;;;18.50;99.60;;;;;;5051593;28;20365;-51
2022/07/12 05:24:19;;;;;;;3.58;2.28;;;18.50;99.20;;;;;;5051558;28;20437;-56
2022/07/12 05:26:45;;;;;;;4.65;2.30;;;18.70;99.40;;;;;;5051314;28;20453;-51
2022/07/12 05:29:11;;;;;;;3.15;2.20;;;18.70;99.10;;;;;;5051080;28;20487;-40
2022/07/12 05:31:36;;;;;;;4.55;2.58;;;18.80;99.00;;;;;;5050856;28;20037;-59
2022/07/12 05:34:02;;;;;;;5.35;2.53;;;18.90;99.60;;;;;;5051511;28;20430;-52
2022/07/12 05:36:28;;;;;;;3.30;2.33;;;19.00;99.00;;;;;;5051351;28;20152;-56
2022/07/12 05:38:54;;;;;;;5.45;2.60;;;19.00;98.20;;;;;;5051505;28;20060;-49
2022/07/12 05:41:19;;;;;;;4.35;2.85;;;19.10;98.20;;;;;;5051085;28;20029;-47
2022/07/12 05:43:45;;;;;;;4.97;3.10;;;19.10;99.20;;;;;;5051410;28;20421;-53
2022/07/12 05:46:11;;;;;;;4.95;2.88;;;19.20;99.50;;;;;;5050947;28;20412;-53
2022/07/12 05:48:37;;;;;;;5.97;3.35;;;19.20;99.00;;;;;;5050820;28;20361;-56
2022/07/12 05:53:48;;;;;;;5.10;3.25;;;19.30;98.60;;;;;;5051074;28;20048;-52
2022/07/12 05:56:13;;;;;;;3.78;2.85;;;19.40;99.00;;;;;;5050938;28;20017;-58
2022/07/12 05:58:40;;;;;;;6.18;3.30;;;19.40;99.00;;;;;;5050936;28;20530;-49
2022/07/12 06:01:06;;;;;;;4.57;2.92;;;19.50;99.20;;;;;;5050947;28;20530;-48
2022/07/12 06:03:32;;;;;;;6.88;3.90;;;19.50;98.40;;;;;;5051123;28;20029;-42
2022/07/12 06:05:59;;;;;;;6.55;4.00;;;19.60;98.00;;;;;;5050770;28;20080;-60
2022/07/12 06:08:25;;;;;;;7.70;3.75;;;19.60;98.90;;;;;;5051048;28;20036;-60
2022/07/12 06:10:51;;;;;;;4.80;3.47;;;19.80;98.70;;;;;;5041774;28;20025;-55
2022/07/12 06:13:16;;;;;;;4.38;3.17;;;20.00;98.80;;;;;;5051022;28;20037;-56
2022/07/12 06:15:42;;;;;;;5.07;3.28;;;20.30;98.80;;;;;;5050507;28;20017;-40
2022/07/12 06:18:08;;;;;;;3.95;2.90;;;21.10;97.80;;;;;;5050854;28;20048;-39
2022/07/12 06:20:33;;;;;;;5.47;2.60;;;22.20;96.70;;;;;;5050471;28;20132;-45
2022/07/12 06:22:59;;;;;;;6.53;2.75;;;23.00;93.20;;;;;;5050641;28;20029;-45
2022/07/12 06:25:25;;;;;;;6.53;2.90;;;23.70;92.20;;;;;;5050808;28;20036;-43
2022/07/12 06:27:51;;;;;;;5.10;2.40;;;24.00;91.00;;;;;;5050883;28;20037;-51
2022/07/12 06:30:21;;;;;;;5.15;2.72;;;24.20;90.40;;;;;;5051016;28;20025;-54
2022/07/12 06:32:48;;;;;;;4.30;2.80;;;24.20;89.10;;;;;;5050792;28;20044;-55
2022/07/12 06:35:14;;;;;;;5.90;2.75;;;24.30;90.00;;;;;;5050973;28;20036;-55
2022/07/12 06:37:41;;;;;;;7.43;2.80;;;24.30;90.00;;;;;;5050555;28;20029;-56
2022/07/12 06:40:07;;;;;;;3.60;2.65;;;24.30;90.50;;;;;;5048252;28;20025;-54
2022/07/12 06:42:33;;;;;;;4.72;2.70;;;24.20;90.40;;;;;;5053106;28;20091;-56
2022/07/12 06:44:59;;;;;;;3.45;2.42;;;24.60;90.20;;;;;;5053812;28;20039;-58
2022/07/12 06:47:25;;;;;;;8.90;2.70;;;25.10;89.90;;;;;;5054048;28;20033;-52
2022/07/12 06:49:51;;;;;;;3.97;2.60;;;25.70;89.20;;;;;;5053095;28;20032;-45
2022/07/12 06:52:17;;;;;;;6.35;2.45;;;25.70;85.50;;;;;;5053547;28;20029;-52
2022/07/12 06:54:43;;;;;;;3.60;2.22;;;25.90;86.00;;;;;;5053415;28;20032;-49
2022/07/12 06:57:08;;;;;;;5.38;2.17;;;25.60;85.30;;;;;;5053682;28;20029;-45
2022/07/12 06:59:34;;;;;;;4.43;2.30;;;25.70;85.20;;;;;;5053491;28;20067;-47
2022/07/12 07:02:00;;;;;;;3.75;2.30;;;25.50;83.70;;;;;;5052964;28;20029;-46
2022/07/12 07:04:26;;;;;;;4.45;2.08;;;25.30;85.30;;;;;;5052628;28;20472;-50
2022/07/12 07:06:51;;;;;;;3.92;2.05;;;25.70;86.90;;;;;;5053167;28;20119;-52
2022/07/12 07:09:17;;;;;;;4.22;1.90;;;26.00;84.90;;;;;;5052833;28;20395;-42
2022/07/12 07:11:43;;;;;;;3.95;1.98;;;26.00;83.80;;;;;;5050780;28;20045;-51
2022/07/12 07:14:09;;;;;;;5.18;1.98;;;25.70;83.60;;;;;;5052475;28;20615;-52
2022/07/12 07:16:35;;;;;;;8.98;2.10;;;25.50;83.70;;;;;;5052844;28;20024;-46
2022/07/12 07:19:00;;;;;;;9.27;2.80;;;25.20;86.70;;;;;;5049280;28;20043;-45
2022/07/12 07:21:26;;;;;;;3.80;2.00;;;25.40;86.30;;;;;;5047794;28;20025;-52
2022/07/12 07:23:52;;;;;;;2.42;1.73;;;25.80;83.80;;;;;;5050850;28;20032;-47
2022/07/12 07:26:19;;;;;;;4.35;2.20;;;26.30;81.80;;;;;;5051680;28;20032;-47
2022/07/12 07:31:29;;;;;;;2.78;1.63;;;28.40;82.10;;;;;;5049915;28;20101;-42
2022/07/12 07:33:55;;;;;;;3.50;1.50;;;29.70;73.40;;;;;;5051728;28;20120;-42
2022/07/12 07:36:20;;;;;;;3.85;2.08;;;30.50;72.20;;;;;;5052688;28;20024;-45
2022/07/12 07:38:46;;;;;;;2.35;1.50;;;31.20;67.30;;;;;;5052257;28;20376;-49
2022/07/12 07:41:12;;;;;;;2.20;1.38;;;31.30;63.20;;;;;;5052570;28;20025;-47
2022/07/12 07:43:37;;;;;;;6.50;1.55;;;31.60;65.70;;;;;;5051483;28;20045;-51
2022/07/12 07:46:03;;;;;;;2.38;1.30;;;31.90;66.20;;;;;;5052878;28;20071;-50
2022/07/12 07:48:29;;;;;;;5.50;1.50;;;32.50;60.40;;;;;;5050512;28;20037;-52
2022/07/12 07:50:55;;;;;;;3.17;1.70;;;32.10;59.90;;;;;;5048379;28;20087;-52
2022/07/12 07:53:21;;;;;;;5.32;1.73;;;32.00;59.90;;;;;;5051149;28;20464;-49
2022/07/12 07:55:46;;;;;;;6.28;1.70;;;32.10;59.40;;;;;;5049841;28;20024;-46
2022/07/12 07:58:14;;;;;;;4.63;1.80;;;31.90;58.60;;;;;;5050882;28;20048;-42
2022/07/12 08:00:40;;;;;;;3.75;1.52;;;31.20;62.80;;;;;;5047494;28;20018;-51
2022/07/12 08:03:06;;;;;;;4.55;1.90;;;30.70;62.40;;;;;;5044577;28;20039;-50
2022/07/12 08:05:31;;;;;;;4.00;1.45;;;30.40;66.50;;;;;;5052506;28;20041;-57
2022/07/12 08:07:57;;;;;;;5.78;2.30;;;29.80;64.50;;;;;;5043598;28;20044;-48
2022/07/12 08:10:23;;;;;;;5.93;2.15;;;29.60;67.00;;;;;;5052438;28;20025;-49
2022/07/12 08:12:49;;;;;;;6.32;1.90;;;30.10;66.00;;;;;;5052791;28;20511;-56
2022/07/12 08:15:15;;;;;;;3.90;1.60;;;31.00;65.30;;;;;;5052909;28;20021;-55
2022/07/12 08:17:40;;;;;;;2.40;1.35;;;31.60;60.60;;;;;;5053004;28;20103;-51
2022/07/12 08:20:06;;;;;;;2.17;1.40;;;32.40;60.10;;;;;;5052535;28;20086;-52
2022/07/12 08:22:32;;;;;;;3.72;1.50;;;32.80;57.50;;;;;;5051670;28;20027;-48
2022/07/12 08:24:58;;;;;;;1.80;1.55;;;33.50;54.80;;;;;;5049782;28;20100;-42
2022/07/12 08:27:23;;;;;;;1.98;1.30;;;33.80;54.30;;;;;;5050153;28;20037;-52
2022/07/12 08:29:49;;;;;;;2.53;1.20;;;34.20;54.40;;;;;;5052227;28;20079;-48
2022/07/12 08:32:15;;;;;;;1.67;1.27;;;33.90;53.50;;;;;;5049877;28;20369;-57
2022/07/12 08:34:42;;;;;;;3.33;1.17;;;33.70;55.90;;;;;;5051331;28;20029;-40
2022/07/12 08:37:08;;;;;;;2.10;1.20;;;34.30;53.60;;;;;;5051955;28;20055;-49
2022/07/12 08:39:34;;;;;;;3.17;1.02;;;34.60;50.80;;;;;;5052097;28;20025;-57
2022/07/12 08:41:59;;;;;;;3.33;1.20;;;34.00;51.60;;;;;;5051261;28;20028;-58
2022/07/12 08:44:25;;;;;;;2.05;1.10;;;33.50;50.60;;;;;;5051463;28;20559;-51
2022/07/12 08:46:52;;;;;;;1.63;1.00;;;32.70;52.00;;;;;;5052235;28;20027;-61
2022/07/12 08:49:18;;;;;;;2.42;1.20;;;31.80;53.80;;;;;;5051939;28;20036;-55
2022/07/12 08:51:44;;;;;;;4.53;1.10;;;31.10;53.90;;;;;;5051188;28;20091;-48
2022/07/12 08:54:12;;;;;;;2.28;1.17;;;31.10;56.30;;;;;;5051022;28;20064;-56
2022/07/12 08:56:39;;;;;;;1.97;1.00;;;31.20;57.50;;;;;;5052177;28;20025;-52
2022/07/12 08:59:09;;;;;;;4.07;1.23;;;31.00;56.30;;;;;;5050511;28;20316;-53
2022/07/12 09:01:47;;;;;;;3.53;1.42;;;30.90;55.40;;;;;;5052206;28;20028;-60
2022/07/12 09:04:21;;;;;;;3.40;1.30;;;30.30;55.50;;;;;;5049289;28;20147;-51
2022/07/12 09:06:47;;;;;;;1.67;1.17;;;30.20;59.40;;;;;;5049722;28;20399;-47
2022/07/12 09:09:33;;;;;;;3.25;1.20;;;30.10;58.20;;;;;;5065081;28;20056;-53
2022/07/12 09:12:00;;;;;;;2.45;1.40;;;29.70;58.00;;;;;;5051713;28;20052;-54
2022/07/12 09:14:28;;;;;;;3.88;1.20;;;29.90;58.50;;;;;;5050077;28;20076;-59
